createdAt,value
2022-09-16T00:01:13.387Z,99.90
2022-09-16T00:03:41.528Z,99.90
2022-09-16T00:06:19.086Z,99.90
2022-09-16T00:08:47.355Z,99.90
2022-09-16T00:11:15.759Z,99.90
2022-09-16T00:13:44.012Z,99.90
2022-09-16T00:16:14.169Z,99.90
2022-09-16T00:18:42.306Z,99.90
2022-09-16T00:21:11.976Z,99.90
2022-09-16T00:23:40.377Z,99.90
2022-09-16T00:26:08.397Z,99.90
2022-09-16T00:28:36.567Z,99.90
2022-09-16T00:31:05.167Z,99.90
2022-09-16T00:33:33.829Z,99.90
2022-09-16T00:36:09.678Z,99.90
2022-09-16T00:38:39.586Z,99.90
2022-09-16T00:41:08.221Z,99.90
2022-09-16T00:43:54.992Z,99.90
2022-09-16T00:46:28.832Z,99.90
2022-09-16T00:48:57.503Z,99.90
2022-09-16T00:51:26.007Z,99.90
2022-09-16T00:54:03.217Z,99.90
2022-09-16T00:56:35.605Z,99.90
2022-09-16T00:59:08.398Z,99.90
2022-09-16T01:01:36.940Z,99.90
2022-09-16T01:04:11.078Z,99.90
2022-09-16T01:06:40.399Z,99.90
2022-09-16T01:09:09.784Z,99.90
2022-09-16T01:11:37.820Z,99.90
2022-09-16T01:14:26.681Z,99.90
2022-09-16T01:17:02.256Z,99.90
2022-09-16T01:19:52.657Z,99.90
2022-09-16T01:22:37.102Z,99.90
2022-09-16T01:25:23.090Z,99.90
2022-09-16T01:28:14.144Z,99.90
2022-09-16T01:30:54.434Z,99.90
2022-09-16T01:33:31.920Z,99.90
2022-09-16T01:36:24.024Z,99.90
2022-09-16T01:39:08.948Z,99.90
2022-09-16T01:41:52.278Z,99.90
2022-09-16T01:44:27.094Z,99.90
2022-09-16T01:47:04.168Z,99.90
2022-09-16T01:49:42.924Z,99.90
2022-09-16T01:52:20.937Z,99.90
2022-09-16T01:54:55.085Z,99.90
2022-09-16T01:57:28.371Z,99.90
2022-09-16T02:00:01.213Z,99.90
2022-09-16T02:02:34.696Z,99.90
2022-09-16T02:05:06.967Z,99.90
2022-09-16T02:07:39.106Z,99.90
2022-09-16T02:10:11.408Z,99.90
2022-09-16T02:12:42.675Z,99.90
2022-09-16T02:15:14.625Z,99.90
2022-09-16T02:17:48.802Z,99.90
2022-09-16T02:20:22.379Z,99.90
2022-09-16T02:22:54.776Z,99.90
2022-09-16T02:25:24.469Z,99.90
2022-09-16T02:27:54.225Z,99.90
2022-09-16T02:30:24.281Z,99.90
2022-09-16T02:32:58.781Z,99.90
2022-09-16T02:35:28.807Z,99.90
2022-09-16T02:38:00.612Z,99.90
2022-09-16T02:40:35.048Z,99.90
2022-09-16T02:43:03.895Z,99.90
2022-09-16T02:45:41.873Z,99.90
2022-09-16T02:48:18.058Z,99.90
2022-09-16T02:51:00.984Z,99.90
2022-09-16T02:53:40.615Z,99.90
2022-09-16T02:56:14.737Z,99.90
2022-09-16T02:58:42.848Z,99.90
2022-09-16T03:01:14.270Z,99.90
2022-09-16T03:03:43.670Z,99.90
2022-09-16T03:06:18.374Z,99.90
2022-09-16T03:08:47.231Z,99.90
2022-09-16T03:11:40.028Z,99.90
2022-09-16T03:14:30.662Z,99.90
2022-09-16T03:17:09.192Z,99.90
2022-09-16T03:19:49.462Z,99.90
2022-09-16T03:22:27.943Z,99.90
2022-09-16T03:25:05.223Z,99.90
2022-09-16T03:27:38.405Z,99.90
2022-09-16T03:30:09.294Z,99.90
2022-09-16T03:32:44.363Z,99.90
2022-09-16T03:35:19.587Z,99.90
2022-09-16T03:37:48.704Z,99.90
2022-09-16T03:40:19.535Z,99.90
2022-09-16T03:42:47.860Z,99.90
2022-09-16T03:45:17.911Z,99.90
2022-09-16T03:47:47.355Z,99.90
2022-09-16T03:50:17.127Z,99.90
2022-09-16T03:52:45.170Z,99.90
2022-09-16T03:55:13.566Z,99.90
2022-09-16T03:57:41.539Z,99.90
2022-09-16T04:00:11.242Z,99.90
2022-09-16T04:02:39.339Z,99.90
2022-09-16T04:05:08.929Z,99.90
2022-09-16T04:07:38.479Z,99.90
2022-09-16T04:10:07.893Z,99.90
2022-09-16T04:12:38.713Z,99.90
2022-09-16T04:15:07.519Z,99.90
2022-09-16T04:17:35.686Z,99.90
2022-09-16T04:20:08.853Z,99.90
2022-09-16T04:22:38.259Z,99.90
2022-09-16T04:25:07.049Z,99.90
2022-09-16T04:27:35.047Z,99.90
2022-09-16T04:30:03.043Z,99.90
2022-09-16T04:32:31.072Z,99.90
2022-09-16T04:34:59.127Z,99.90
2022-09-16T04:37:27.199Z,99.90
2022-09-16T04:39:58.919Z,99.90
2022-09-16T04:42:29.329Z,99.90
2022-09-16T04:44:57.840Z,99.90
2022-09-16T04:47:25.845Z,99.90
2022-09-16T04:49:53.802Z,99.90
2022-09-16T04:52:21.779Z,99.90
2022-09-16T04:54:49.780Z,99.90
2022-09-16T04:57:19.149Z,99.90
2022-09-16T04:59:47.110Z,99.90
2022-09-16T05:02:15.194Z,99.90
2022-09-16T05:04:43.247Z,99.90
2022-09-16T05:07:12.348Z,99.90
2022-09-16T05:09:41.231Z,99.90
2022-09-16T05:12:09.529Z,99.90
2022-09-16T05:14:38.879Z,99.90
2022-09-16T05:17:07.462Z,99.90
2022-09-16T05:19:35.547Z,99.90
2022-09-16T05:22:07.081Z,99.90
2022-09-16T05:24:36.450Z,99.90
2022-09-16T05:27:04.638Z,99.90
2022-09-16T05:29:32.626Z,99.90
2022-09-16T05:32:02.414Z,99.90
2022-09-16T05:34:33.290Z,99.90
2022-09-16T05:37:01.313Z,99.90
2022-09-16T05:39:29.553Z,99.90
2022-09-16T05:41:59.824Z,99.90
2022-09-16T05:44:29.266Z,99.90
2022-09-16T05:46:57.792Z,99.90
2022-09-16T05:49:27.357Z,99.90
2022-09-16T05:51:55.747Z,99.90
2022-09-16T05:54:25.350Z,99.90
2022-09-16T05:56:53.628Z,99.90
2022-09-16T05:59:22.572Z,99.90
2022-09-16T06:01:50.732Z,99.90
2022-09-16T06:04:18.815Z,99.90
2022-09-16T06:06:48.414Z,99.90
2022-09-16T06:09:18.233Z,99.90
2022-09-16T06:11:47.975Z,99.90
2022-09-16T06:14:16.928Z,99.90
2022-09-16T06:16:45.522Z,99.90
2022-09-16T06:19:15.157Z,99.90
2022-09-16T06:21:44.549Z,99.90
2022-09-16T06:24:15.145Z,99.90
2022-09-16T06:26:45.148Z,99.90
2022-09-16T06:29:13.585Z,99.90
2022-09-16T06:31:42.595Z,99.90
2022-09-16T06:34:15.209Z,99.90
2022-09-16T06:36:45.361Z,99.90
2022-09-16T06:39:16.477Z,99.90
2022-09-16T06:41:44.927Z,99.90
2022-09-16T06:44:12.901Z,99.90
2022-09-16T06:46:41.083Z,99.90
2022-09-16T06:49:11.011Z,99.90
2022-09-16T06:51:39.163Z,99.90
2022-09-16T06:54:08.982Z,99.90
2022-09-16T06:56:39.762Z,99.90
2022-09-16T06:59:09.001Z,99.90
2022-09-16T07:01:37.502Z,99.90
2022-09-16T07:04:08.231Z,99.90
2022-09-16T07:09:25.019Z,99.90
2022-09-16T07:11:55.159Z,99.90
2022-09-16T07:14:23.829Z,99.90
2022-09-16T07:16:51.980Z,99.90
2022-09-16T07:19:20.121Z,99.90
2022-09-16T07:21:48.205Z,99.90
2022-09-16T07:24:16.415Z,99.90
2022-09-16T07:26:45.192Z,99.90
2022-09-16T07:29:19.136Z,99.90
2022-09-16T07:31:48.143Z,99.90
2022-09-16T07:34:16.154Z,99.90
2022-09-16T07:36:45.668Z,99.90
2022-09-16T07:39:15.862Z,99.90
2022-09-16T07:41:46.740Z,99.90
2022-09-16T07:44:18.980Z,99.90
2022-09-16T07:46:51.369Z,99.90
2022-09-16T07:49:19.907Z,99.90
2022-09-16T07:51:48.335Z,99.90
2022-09-16T07:54:18.366Z,99.90
2022-09-16T07:56:46.853Z,99.90
2022-09-16T07:59:19.286Z,99.90
2022-09-16T08:01:48.708Z,99.90
2022-09-16T08:04:17.025Z,99.90
2022-09-16T08:06:48.330Z,99.90
2022-09-16T08:12:07.815Z,99.90
2022-09-16T08:14:37.442Z,99.90
2022-09-16T08:17:05.745Z,99.90
2022-09-16T08:19:34.542Z,99.90
2022-09-16T08:22:02.531Z,99.90
2022-09-16T08:24:30.516Z,99.90
2022-09-16T08:26:58.497Z,99.90
2022-09-16T08:29:27.254Z,99.90
2022-09-16T08:31:56.638Z,99.90
2022-09-16T08:34:24.773Z,99.90
2022-09-16T08:36:52.763Z,99.90
2022-09-16T08:39:21.656Z,99.90
2022-09-16T08:42:30.857Z,99.90
2022-09-16T08:45:09.978Z,99.90
2022-09-16T08:47:54.433Z,99.90
2022-09-16T08:50:29.066Z,99.90
2022-09-16T08:53:03.017Z,99.90
2022-09-16T08:55:35.240Z,99.90
2022-09-16T08:58:06.022Z,99.90
2022-09-16T09:00:35.382Z,99.90
2022-09-16T09:03:15.798Z,99.90
2022-09-16T09:05:51.823Z,99.90
2022-09-16T09:08:47.441Z,99.90
2022-09-16T09:11:22.749Z,99.90
2022-09-16T09:14:00.441Z,99.90
2022-09-16T09:16:37.563Z,99.90
2022-09-16T09:19:32.730Z,99.90
2022-09-16T09:22:06.444Z,99.90
2022-09-16T09:24:59.123Z,99.90
2022-09-16T09:27:32.130Z,99.90
2022-09-16T09:30:18.421Z,99.90
2022-09-16T09:33:03.469Z,99.90
2022-09-16T09:35:49.763Z,99.90
2022-09-16T09:38:52.132Z,99.90
2022-09-16T09:41:26.560Z,99.90
2022-09-16T09:43:58.325Z,99.90
2022-09-16T09:46:31.157Z,99.90
2022-09-16T09:49:05.409Z,99.90
2022-09-16T09:51:37.985Z,99.90
2022-09-16T09:54:20.366Z,99.90
2022-09-16T09:56:50.706Z,99.90
2022-09-16T09:59:26.563Z,99.00
2022-09-16T10:01:56.147Z,98.60
2022-09-16T10:04:24.732Z,97.30
2022-09-16T10:06:56.998Z,96.40
2022-09-16T10:09:25.733Z,95.70
2022-09-16T10:11:56.087Z,96.10
2022-09-16T10:14:27.031Z,97.10
2022-09-16T10:16:56.108Z,96.50
2022-09-16T10:19:25.941Z,98.40
2022-09-16T10:21:56.759Z,98.20
2022-09-16T10:24:31.189Z,98.70
2022-09-16T10:27:00.131Z,98.60
2022-09-16T10:29:28.593Z,98.70
2022-09-16T10:31:59.277Z,98.90
2022-09-16T10:34:35.092Z,99.30
2022-09-16T10:37:14.812Z,99.80
2022-09-16T10:39:46.644Z,99.90
2022-09-16T10:42:20.059Z,99.90
2022-09-16T10:44:48.516Z,99.90
2022-09-16T10:47:22.406Z,97.00
2022-09-16T10:49:53.187Z,95.10
2022-09-16T10:52:25.025Z,93.40
2022-09-16T10:54:53.573Z,93.70
2022-09-16T10:57:28.786Z,94.10
2022-09-16T11:00:08.603Z,95.50
2022-09-16T11:02:51.888Z,95.70
2022-09-16T11:05:29.291Z,95.80
2022-09-16T11:08:06.801Z,96.30
2022-09-16T11:10:41.865Z,97.00
2022-09-16T11:13:30.380Z,98.40
2022-09-16T11:16:14.985Z,98.60
2022-09-16T11:18:52.880Z,99.00
2022-09-16T11:21:38.131Z,98.20
2022-09-16T11:24:22.505Z,98.70
2022-09-16T11:27:01.953Z,98.90
2022-09-16T11:29:50.079Z,98.80
2022-09-16T11:32:26.761Z,99.10
2022-09-16T11:35:17.616Z,98.80
2022-09-16T11:37:53.666Z,98.70
2022-09-16T11:40:32.637Z,98.00
2022-09-16T11:43:19.702Z,97.70
2022-09-16T11:45:54.133Z,98.00
2022-09-16T11:48:39.872Z,97.50
2022-09-16T11:51:15.677Z,97.70
2022-09-16T11:54:04.597Z,97.10
2022-09-16T11:56:38.896Z,97.70
2022-09-16T11:59:16.260Z,97.90
2022-09-16T12:01:47.726Z,97.70
2022-09-16T12:04:22.056Z,96.80
2022-09-16T12:06:56.764Z,96.20
2022-09-16T12:09:32.708Z,95.80
2022-09-16T12:12:12.088Z,95.50
2022-09-16T12:14:43.846Z,95.10
2022-09-16T12:17:17.193Z,95.00
2022-09-16T12:19:50.285Z,93.90
2022-09-16T12:22:23.033Z,93.40
2022-09-16T12:24:58.997Z,94.90
2022-09-16T12:27:38.673Z,95.60
2022-09-16T12:30:14.666Z,96.50
2022-09-16T12:32:50.557Z,96.90
2022-09-16T12:35:22.824Z,97.40
2022-09-16T12:37:52.889Z,98.10
2022-09-16T12:40:25.121Z,99.80
2022-09-16T12:43:30.311Z,99.90
2022-09-16T12:46:24.892Z,99.90
2022-09-16T12:49:20.800Z,99.90
2022-09-16T12:52:14.444Z,99.90
2022-09-16T12:55:09.418Z,99.90
2022-09-16T12:57:51.411Z,99.90
2022-09-16T13:00:23.413Z,99.90
2022-09-16T13:02:54.605Z,99.90
2022-09-16T13:05:30.878Z,99.90
2022-09-16T13:08:05.049Z,99.90
2022-09-16T13:10:54.525Z,99.90
2022-09-16T13:13:32.338Z,99.90
2022-09-16T13:16:03.524Z,99.90
2022-09-16T13:18:44.156Z,99.90
2022-09-16T13:21:26.176Z,99.80
2022-09-16T13:24:02.621Z,99.90
2022-09-16T13:26:41.106Z,99.90
2022-09-16T13:29:43.982Z,98.70
2022-09-16T13:32:38.183Z,97.40
2022-09-16T13:35:24.503Z,92.20
2022-09-16T13:37:54.522Z,92.90
2022-09-16T13:40:25.399Z,94.60
2022-09-16T13:43:05.875Z,96.00
2022-09-16T13:45:35.993Z,97.80
2022-09-16T13:48:11.683Z,98.90
2022-09-16T13:50:43.758Z,98.80
2022-09-16T13:53:19.322Z,98.50
2022-09-16T13:55:49.147Z,98.10
2022-09-16T13:58:26.091Z,98.90
2022-09-16T14:01:03.637Z,99.90
2022-09-16T14:03:45.683Z,99.90
2022-09-16T14:06:30.930Z,99.90
2022-09-16T14:09:07.426Z,99.90
2022-09-16T14:11:41.589Z,99.90
2022-09-16T14:14:36.148Z,99.90
2022-09-16T14:17:05.474Z,99.90
2022-09-16T14:19:38.531Z,99.90
2022-09-16T14:22:14.331Z,99.90
2022-09-16T14:24:43.735Z,99.90
2022-09-16T14:27:21.743Z,99.90
2022-09-16T14:29:57.864Z,99.90
2022-09-16T14:32:29.068Z,99.90
2022-09-16T14:35:03.441Z,99.90
2022-09-16T14:37:33.193Z,98.70
2022-09-16T14:40:06.149Z,96.80
2022-09-16T14:42:34.576Z,95.90
2022-09-16T14:45:03.948Z,92.90
2022-09-16T14:47:50.754Z,91.90
2022-09-16T14:50:24.730Z,92.90
2022-09-16T14:52:58.399Z,93.80
2022-09-16T14:55:30.129Z,94.60
2022-09-16T14:57:59.049Z,95.60
2022-09-16T15:00:37.183Z,94.60
2022-09-16T15:03:14.187Z,95.40
2022-09-16T15:05:48.113Z,96.20
2022-09-16T15:08:20.617Z,98.40
2022-09-16T15:10:52.446Z,99.90
2022-09-16T15:13:25.262Z,99.90
2022-09-16T15:15:58.182Z,99.90
2022-09-16T15:18:29.663Z,99.90
2022-09-16T15:21:05.841Z,99.90
2022-09-16T15:23:36.011Z,99.90
2022-09-16T15:26:14.746Z,99.90
2022-09-16T15:28:57.590Z,99.90
2022-09-16T15:31:32.169Z,99.90
2022-09-16T15:34:01.684Z,99.90
2022-09-16T15:36:49.716Z,99.90
2022-09-16T15:39:28.241Z,99.90
2022-09-16T15:42:12.813Z,99.90
2022-09-16T15:44:47.454Z,99.90
2022-09-16T15:47:24.819Z,99.90
2022-09-16T15:49:59.227Z,99.90
2022-09-16T15:52:29.284Z,99.90
2022-09-16T15:55:01.248Z,99.90
2022-09-16T15:57:32.877Z,99.90
2022-09-16T16:00:11.464Z,99.90
2022-09-16T16:02:45.167Z,99.90
2022-09-16T16:05:16.111Z,99.90
2022-09-16T16:07:47.313Z,99.90
2022-09-16T16:10:18.269Z,99.90
2022-09-16T16:12:47.884Z,99.90
2022-09-16T16:15:17.499Z,99.90
2022-09-16T16:17:46.280Z,99.90
2022-09-16T16:20:16.688Z,99.90
2022-09-16T16:22:46.472Z,99.90
2022-09-16T16:25:15.131Z,99.90
2022-09-16T16:27:43.513Z,99.90
2022-09-16T16:30:12.632Z,99.90
2022-09-16T16:32:40.641Z,99.90
2022-09-16T16:35:09.518Z,99.90
2022-09-16T16:37:46.344Z,99.90
2022-09-16T16:40:16.798Z,99.90
2022-09-16T16:42:45.183Z,99.90
2022-09-16T16:45:14.282Z,99.90
2022-09-16T16:47:42.440Z,99.90
2022-09-16T16:50:11.538Z,99.90
2022-09-16T16:52:39.609Z,99.90
2022-09-16T16:55:08.386Z,99.90
2022-09-16T16:57:37.792Z,99.90
2022-09-16T17:00:07.388Z,99.90
2022-09-16T17:02:35.495Z,99.90
2022-09-16T17:05:03.602Z,99.90
2022-09-16T17:07:31.617Z,99.90
2022-09-16T17:09:59.667Z,99.90
2022-09-16T17:12:28.031Z,99.90
2022-09-16T17:14:57.431Z,99.90
2022-09-16T17:17:30.641Z,99.90
2022-09-16T17:19:59.916Z,99.90
2022-09-16T17:22:27.914Z,99.90
2022-09-16T17:24:56.256Z,99.90
2022-09-16T17:27:27.267Z,99.90
2022-09-16T17:29:56.760Z,99.90
2022-09-16T17:32:25.076Z,99.90
2022-09-16T17:34:53.136Z,99.90
2022-09-16T17:37:21.103Z,99.90
2022-09-16T17:39:49.806Z,99.90
2022-09-16T17:42:17.927Z,99.90
2022-09-16T17:44:45.944Z,99.90
2022-09-16T17:47:15.348Z,99.90
2022-09-16T17:49:43.369Z,99.90
2022-09-16T17:52:11.484Z,99.90
2022-09-16T17:54:40.965Z,99.90
2022-09-16T17:57:08.953Z,99.90
2022-09-16T17:59:37.013Z,99.90
2022-09-16T18:02:07.321Z,99.90
2022-09-16T18:04:36.873Z,99.90
2022-09-16T18:07:05.069Z,99.90
2022-09-16T18:09:33.255Z,99.90
2022-09-16T18:12:01.377Z,99.90
2022-09-16T18:14:29.499Z,99.90
2022-09-16T18:17:02.490Z,99.90
2022-09-16T18:19:30.789Z,99.90
2022-09-16T18:22:00.148Z,99.90
2022-09-16T18:24:28.379Z,99.90
2022-09-16T18:26:56.654Z,99.90
2022-09-16T18:29:24.759Z,99.90
2022-09-16T18:31:54.356Z,99.90
2022-09-16T18:34:23.805Z,99.90
2022-09-16T18:36:51.849Z,99.90
2022-09-16T18:39:21.333Z,99.90
2022-09-16T18:41:49.378Z,99.90
2022-09-16T18:44:20.684Z,99.90
2022-09-16T18:46:49.254Z,99.90
2022-09-16T18:49:18.350Z,99.90
2022-09-16T18:51:51.376Z,99.90
2022-09-16T18:54:25.018Z,99.90
2022-09-16T18:56:55.721Z,99.90
2022-09-16T18:59:26.854Z,99.90
2022-09-16T19:01:57.322Z,99.90
2022-09-16T19:04:27.786Z,99.90
2022-09-16T19:06:59.181Z,99.90
2022-09-16T19:09:28.671Z,99.90
2022-09-16T19:11:56.662Z,99.90
2022-09-16T19:14:27.438Z,99.90
2022-09-16T19:16:56.010Z,99.90
2022-09-16T19:19:24.286Z,99.90
2022-09-16T19:21:52.356Z,99.90
2022-09-16T19:24:22.847Z,99.90
2022-09-16T19:26:54.117Z,99.90
2022-09-16T19:29:22.687Z,99.90
2022-09-16T19:31:52.839Z,99.90
2022-09-16T19:34:21.800Z,99.90
2022-09-16T19:36:50.398Z,99.90
2022-09-16T19:39:21.080Z,99.90
2022-09-16T19:41:49.139Z,99.90
2022-09-16T19:44:19.254Z,99.90
2022-09-16T19:46:49.384Z,99.90
2022-09-16T19:49:19.933Z,99.90
2022-09-16T19:51:49.208Z,99.90
2022-09-16T19:54:18.132Z,99.90
2022-09-16T19:56:50.488Z,99.90
2022-09-16T19:59:20.721Z,99.90
2022-09-16T20:01:49.200Z,99.90
2022-09-16T20:04:19.850Z,99.90
2022-09-16T20:06:48.404Z,99.90
2022-09-16T20:09:16.869Z,99.90
2022-09-16T20:11:47.228Z,99.90
2022-09-16T20:14:18.702Z,99.90
2022-09-16T20:16:49.641Z,99.90
2022-09-16T20:19:19.996Z,99.90
2022-09-16T20:21:48.189Z,99.90
2022-09-16T20:24:18.318Z,99.90
2022-09-16T20:26:46.744Z,99.90
2022-09-16T20:29:17.198Z,99.90
2022-09-16T20:31:46.042Z,99.90
2022-09-16T20:34:16.466Z,99.90
2022-09-16T20:36:45.888Z,99.90
2022-09-16T20:39:14.693Z,99.90
2022-09-16T20:41:43.487Z,99.90
2022-09-16T20:44:14.089Z,99.90
2022-09-16T20:46:42.125Z,99.90
2022-09-16T20:49:15.785Z,99.90
2022-09-16T20:51:53.617Z,99.90
2022-09-16T20:54:21.696Z,99.90
2022-09-16T20:56:49.932Z,99.90
2022-09-16T20:59:20.049Z,99.90
2022-09-16T21:01:48.421Z,99.90
2022-09-16T21:04:18.233Z,99.90
2022-09-16T21:06:47.125Z,99.90
2022-09-16T21:09:18.897Z,99.90
2022-09-16T21:11:47.018Z,99.90
2022-09-16T21:14:17.239Z,99.90
2022-09-16T21:16:47.013Z,99.90
2022-09-16T21:19:16.162Z,99.90
2022-09-16T21:21:45.785Z,99.90
2022-09-16T21:24:14.353Z,99.90
2022-09-16T21:26:44.543Z,99.90
2022-09-16T21:29:15.191Z,99.90
2022-09-16T21:31:43.780Z,99.90
2022-09-16T21:34:14.238Z,99.90
2022-09-16T21:36:44.324Z,99.90
2022-09-16T21:39:14.287Z,99.90
2022-09-16T21:41:44.354Z,99.90
2022-09-16T21:44:12.994Z,99.90
2022-09-16T21:46:43.010Z,99.90
2022-09-16T21:49:19.193Z,99.90
2022-09-16T21:51:47.272Z,99.90
2022-09-16T21:54:19.896Z,99.90
2022-09-16T21:56:51.358Z,99.90
2022-09-16T21:59:20.396Z,99.90
2022-09-16T22:01:49.544Z,99.90
2022-09-16T22:04:19.296Z,99.90
2022-09-16T22:06:48.763Z,99.90
2022-09-16T22:09:16.890Z,99.90
2022-09-16T22:11:44.930Z,99.90
2022-09-16T22:14:14.438Z,99.90
2022-09-16T22:16:42.500Z,99.90
2022-09-16T22:19:12.705Z,99.90
2022-09-16T22:21:43.017Z,99.90
2022-09-16T22:24:11.805Z,99.90
2022-09-16T22:26:40.576Z,99.90
2022-09-16T22:29:09.538Z,99.90
2022-09-16T22:31:42.342Z,99.90
2022-09-16T22:34:10.628Z,99.90
2022-09-16T22:36:39.690Z,99.90
2022-09-16T22:39:11.828Z,99.90
2022-09-16T22:41:39.889Z,99.90
2022-09-16T22:44:07.992Z,99.90
2022-09-16T22:46:42.713Z,99.90
2022-09-16T22:49:11.578Z,99.90
2022-09-16T22:51:40.167Z,99.90
2022-09-16T22:54:08.671Z,99.90
2022-09-16T22:56:37.045Z,99.90
2022-09-16T22:59:08.212Z,99.90
2022-09-16T23:01:39.841Z,99.90
2022-09-16T23:04:11.208Z,99.90
2022-09-16T23:06:41.370Z,99.90
2022-09-16T23:09:10.285Z,99.90
2022-09-16T23:11:38.322Z,99.90
2022-09-16T23:14:06.580Z,99.90
2022-09-16T23:16:38.277Z,99.90
2022-09-16T23:19:11.011Z,99.90
2022-09-16T23:21:40.065Z,99.90
2022-09-16T23:24:09.889Z,99.90
2022-09-16T23:26:39.329Z,99.90
2022-09-16T23:29:09.484Z,99.90
2022-09-16T23:31:40.353Z,99.90
2022-09-16T23:34:13.869Z,99.90
2022-09-16T23:36:42.401Z,99.90
2022-09-16T23:39:11.689Z,99.90
2022-09-16T23:41:39.805Z,99.90
2022-09-16T23:44:07.861Z,99.90
2022-09-16T23:46:36.057Z,99.90
2022-09-16T23:49:04.216Z,99.90
2022-09-16T23:51:33.864Z,99.90
2022-09-16T23:54:01.877Z,99.90
2022-09-16T23:56:29.962Z,99.90
2022-09-16T23:59:00.637Z,99.90
